createdAt,value
2018-07-06T00:01:11.296Z,6.40
2018-07-06T00:03:58.318Z,6.23
2018-07-06T00:06:45.293Z,5.87
2018-07-06T00:09:32.693Z,5.60
2018-07-06T00:12:19.638Z,4.80
2018-07-06T00:15:07.013Z,5.13
2018-07-06T00:17:54.122Z,4.87
2018-07-06T00:20:41.605Z,5.00
2018-07-06T00:23:28.974Z,4.60
2018-07-06T00:26:15.997Z,4.87
2018-07-06T00:28:57.645Z,4.13
2018-07-06T00:31:44.954Z,4.70
2018-07-06T00:34:32.738Z,4.07
2018-07-06T00:37:19.817Z,4.13
2018-07-06T00:40:07.078Z,4.47
2018-07-06T00:42:54.198Z,4.43
2018-07-06T00:45:42.130Z,4.60
2018-07-06T00:48:29.865Z,5.10
2018-07-06T00:51:11.666Z,4.70
2018-07-06T00:53:58.973Z,4.50
2018-07-06T00:56:40.153Z,4.60
2018-07-06T00:59:27.728Z,5.00
2018-07-06T01:02:14.892Z,4.50
2018-07-06T01:05:01.848Z,4.33
2018-07-06T01:07:48.912Z,3.93
2018-07-06T01:10:36.604Z,4.40
2018-07-06T01:13:23.670Z,4.37
2018-07-06T01:16:11.409Z,4.67
2018-07-06T01:18:58.301Z,4.40
2018-07-06T01:21:46.137Z,3.93
2018-07-06T01:24:33.273Z,4.30
2018-07-06T01:27:20.949Z,4.70
2018-07-06T01:30:08.345Z,4.30
2018-07-06T01:32:56.492Z,4.33
2018-07-06T01:35:38.204Z,4.53
2018-07-06T01:38:25.106Z,4.10
2018-07-06T01:41:12.077Z,4.63
2018-07-06T01:43:59.950Z,3.90
2018-07-06T01:46:46.965Z,4.53
2018-07-06T01:49:34.484Z,4.10
2018-07-06T01:52:21.643Z,4.67
2018-07-06T01:55:09.559Z,4.40
2018-07-06T01:57:56.486Z,4.60
2018-07-06T02:00:44.356Z,4.80
2018-07-06T02:03:32.106Z,4.77
2018-07-06T02:06:19.889Z,4.90
2018-07-06T02:09:06.995Z,5.20
2018-07-06T02:11:56.545Z,4.60
2018-07-06T02:14:43.810Z,5.17
2018-07-06T02:17:31.510Z,5.23
2018-07-06T02:20:18.589Z,5.23
2018-07-06T02:23:06.866Z,4.87
2018-07-06T02:25:53.802Z,5.43
2018-07-06T02:28:41.297Z,5.17
2018-07-06T02:31:28.451Z,6.47
2018-07-06T02:34:15.925Z,5.37
2018-07-06T02:37:03.022Z,5.20
2018-07-06T02:39:50.737Z,5.23
2018-07-06T02:42:32.313Z,5.10
2018-07-06T02:45:20.711Z,4.87
2018-07-06T02:48:08.274Z,5.60
2018-07-06T02:50:56.156Z,4.90
2018-07-06T02:53:37.641Z,5.20
2018-07-06T02:56:19.706Z,5.53
2018-07-06T02:59:06.801Z,5.43
2018-07-06T03:01:54.159Z,5.13
2018-07-06T03:04:41.091Z,5.37
2018-07-06T03:07:28.309Z,5.60
2018-07-06T03:10:15.606Z,5.83
2018-07-06T03:13:02.851Z,5.47
2018-07-06T03:15:50.210Z,5.17
2018-07-06T03:18:37.196Z,5.60
2018-07-06T03:21:24.567Z,5.37
2018-07-06T03:24:11.741Z,5.63
2018-07-06T03:26:59.250Z,5.13
2018-07-06T03:29:46.921Z,5.53
2018-07-06T03:32:34.513Z,5.77
2018-07-06T03:35:22.073Z,6.30
2018-07-06T03:38:09.651Z,5.73
2018-07-06T03:40:57.517Z,5.23
2018-07-06T03:43:44.801Z,5.03
2018-07-06T03:46:31.890Z,5.47
2018-07-06T03:49:19.370Z,5.63
2018-07-06T03:52:06.572Z,5.03
2018-07-06T03:54:56.774Z,5.20
2018-07-06T03:57:45.158Z,5.10
2018-07-06T04:00:32.597Z,5.30
2018-07-06T04:03:19.707Z,5.60
2018-07-06T04:06:06.973Z,4.93
2018-07-06T04:08:54.125Z,6.00
2018-07-06T04:11:41.302Z,6.13
2018-07-06T04:14:29.147Z,6.37
2018-07-06T04:17:16.186Z,7.20
2018-07-06T04:20:03.362Z,7.60
2018-07-06T04:22:51.194Z,7.23
2018-07-06T04:25:38.678Z,7.67
2018-07-06T04:28:26.373Z,7.30
2018-07-06T04:31:14.073Z,7.67
2018-07-06T04:34:01.791Z,7.47
2018-07-06T04:36:49.250Z,7.70
2018-07-06T04:39:36.553Z,8.00
2018-07-06T04:42:23.822Z,7.20
2018-07-06T04:45:11.009Z,7.47
2018-07-06T04:47:58.500Z,6.77
2018-07-06T04:50:46.310Z,6.60
2018-07-06T04:53:33.549Z,6.97
2018-07-06T04:56:21.245Z,6.90
2018-07-06T04:59:22.182Z,6.30
2018-07-06T05:02:09.778Z,5.43
2018-07-06T05:04:57.090Z,6.10
2018-07-06T05:07:44.597Z,6.33
2018-07-06T05:10:31.581Z,5.90
2018-07-06T05:13:18.787Z,6.23
2018-07-06T05:16:18.831Z,6.10
2018-07-06T05:19:05.982Z,5.67
2018-07-06T05:21:53.462Z,5.73
2018-07-06T05:24:42.049Z,5.57
2018-07-06T05:27:31.859Z,5.83
2018-07-06T05:30:19.457Z,5.70
2018-07-06T05:33:06.941Z,5.33
2018-07-06T05:35:54.085Z,5.30
2018-07-06T05:38:41.769Z,5.40
2018-07-06T05:41:28.717Z,5.10
2018-07-06T05:44:15.941Z,5.20
2018-07-06T05:47:02.813Z,5.37
2018-07-06T05:49:49.945Z,5.00
2018-07-06T05:52:36.885Z,5.40
2018-07-06T05:55:24.490Z,5.17
2018-07-06T05:58:11.470Z,5.10
2018-07-06T06:01:08.934Z,5.17
2018-07-06T06:03:50.594Z,5.40
2018-07-06T06:06:38.133Z,5.27
2018-07-06T06:09:12.901Z,5.63
2018-07-06T06:11:43.504Z,5.90
2018-07-06T06:14:14.919Z,5.83
2018-07-06T06:16:47.227Z,5.50
2018-07-06T06:19:18.934Z,5.43
2018-07-06T06:21:56.031Z,6.20
2018-07-06T06:24:27.213Z,5.90
2018-07-06T06:26:57.865Z,6.13
2018-07-06T06:29:29.164Z,6.23
2018-07-06T06:32:00.788Z,6.63
2018-07-06T06:34:31.862Z,6.90
2018-07-06T06:37:03.785Z,7.20
2018-07-06T06:39:34.630Z,7.60
2018-07-06T06:42:05.882Z,8.27
2018-07-06T06:44:36.687Z,8.80
2018-07-06T06:47:08.028Z,8.93
2018-07-06T06:49:39.726Z,8.10
2018-07-06T06:52:11.443Z,9.67
2018-07-06T06:54:42.121Z,9.97
2018-07-06T06:57:16.194Z,10.53
2018-07-06T06:59:47.754Z,10.80
2018-07-06T07:02:19.756Z,10.50
2018-07-06T07:04:51.086Z,10.77
2018-07-06T07:07:21.846Z,9.80
2018-07-06T07:09:52.489Z,8.17
2018-07-06T07:12:23.393Z,7.90
2018-07-06T07:14:53.973Z,7.10
2018-07-06T07:17:26.145Z,7.73
2018-07-06T07:19:56.822Z,7.97
2018-07-06T07:22:35.371Z,7.90
2018-07-06T07:25:06.082Z,7.50
2018-07-06T07:27:36.845Z,7.53
2018-07-06T07:30:08.039Z,8.03
2018-07-06T07:32:39.193Z,7.60
2018-07-06T07:35:09.949Z,7.53
2018-07-06T07:37:41.097Z,7.20
2018-07-06T07:40:11.761Z,6.93
2018-07-06T07:42:43.129Z,6.90
2018-07-06T07:45:13.910Z,6.50
2018-07-06T07:47:44.630Z,6.43
2018-07-06T07:50:15.263Z,6.10
2018-07-06T07:52:57.253Z,6.10
2018-07-06T07:55:27.945Z,6.53
2018-07-06T07:57:59.769Z,5.87
2018-07-06T08:00:30.630Z,6.03
2018-07-06T08:03:01.494Z,5.43
2018-07-06T08:05:32.506Z,5.90
2018-07-06T08:08:03.371Z,5.40
2018-07-06T08:10:33.982Z,5.30
2018-07-06T08:13:05.273Z,5.30
2018-07-06T08:15:35.922Z,4.70
2018-07-06T08:18:06.661Z,4.17
2018-07-06T08:20:37.666Z,4.53
2018-07-06T08:23:08.597Z,3.80
2018-07-06T08:25:39.318Z,4.20
2018-07-06T08:28:10.256Z,4.20
2018-07-06T08:30:41.426Z,4.30
2018-07-06T08:33:12.346Z,3.80
2018-07-06T08:35:53.454Z,4.00
2018-07-06T08:38:24.082Z,4.70
2018-07-06T08:40:54.693Z,3.87
2018-07-06T08:43:26.005Z,4.20
2018-07-06T08:45:56.692Z,4.60
2018-07-06T08:48:27.232Z,4.50
2018-07-06T08:50:58.262Z,4.87
2018-07-06T08:53:28.835Z,4.90
2018-07-06T08:55:59.592Z,4.10
2018-07-06T08:58:30.631Z,4.53
2018-07-06T09:01:01.382Z,4.07
2018-07-06T09:03:32.439Z,4.03
2018-07-06T09:06:03.003Z,4.13
2018-07-06T09:08:33.773Z,4.37
2018-07-06T09:11:04.354Z,3.87
2018-07-06T09:13:35.101Z,4.03
2018-07-06T09:16:05.702Z,4.30
2018-07-06T09:18:36.377Z,4.00
2018-07-06T09:21:07.489Z,4.00
2018-07-06T09:23:38.390Z,3.87
2018-07-06T09:26:09.379Z,3.97
2018-07-06T09:28:39.842Z,3.77
2018-07-06T09:31:10.421Z,3.67
2018-07-06T09:33:40.989Z,3.40
2018-07-06T09:36:11.649Z,4.00
2018-07-06T09:38:42.642Z,4.07
2018-07-06T09:41:13.454Z,3.87
2018-07-06T09:43:45.098Z,3.50
2018-07-06T09:46:15.682Z,3.67
2018-07-06T09:48:46.494Z,3.37
2018-07-06T09:51:17.078Z,3.60
2018-07-06T09:53:47.729Z,3.53
2018-07-06T09:56:18.786Z,3.97
2018-07-06T09:58:49.435Z,3.33
2018-07-06T10:01:20.030Z,3.17
2018-07-06T10:03:50.867Z,3.50
2018-07-06T10:06:21.597Z,3.77
2018-07-06T10:08:52.682Z,3.60
2018-07-06T10:11:23.923Z,3.77
2018-07-06T10:13:54.586Z,3.67
2018-07-06T10:16:25.627Z,3.80
2018-07-06T10:18:56.682Z,3.40
2018-07-06T10:21:27.449Z,3.30
2018-07-06T10:23:58.269Z,3.40
2018-07-06T10:26:28.912Z,3.60
2018-07-06T10:29:14.438Z,3.43
2018-07-06T10:32:22.029Z,4.03
2018-07-06T10:34:52.836Z,3.40
2018-07-06T10:37:23.908Z,3.50
2018-07-06T10:39:54.807Z,3.80
2018-07-06T10:42:25.334Z,3.73
2018-07-06T10:44:56.537Z,3.23
2018-07-06T10:47:27.153Z,3.57
2018-07-06T10:49:57.886Z,3.30
2018-07-06T10:52:28.821Z,3.60
2018-07-06T10:54:59.757Z,3.17
2018-07-06T10:57:30.348Z,3.50
2018-07-06T11:00:01.365Z,4.20
2018-07-06T11:02:32.087Z,3.63
2018-07-06T11:05:03.128Z,3.30
2018-07-06T11:07:34.510Z,3.50
2018-07-06T11:10:05.433Z,3.00
2018-07-06T11:12:36.099Z,3.00
2018-07-06T11:15:07.459Z,2.97
2018-07-06T11:17:38.154Z,2.67
2018-07-06T11:20:10.408Z,2.63
2018-07-06T11:22:41.926Z,3.07
2018-07-06T11:25:13.130Z,3.00
2018-07-06T11:27:44.779Z,3.00
2018-07-06T11:30:17.547Z,3.23
2018-07-06T11:32:48.327Z,3.47
2018-07-06T11:35:19.085Z,3.20
2018-07-06T11:37:50.150Z,2.47
2018-07-06T11:40:21.055Z,3.00
2018-07-06T11:42:51.622Z,2.97
2018-07-06T11:45:24.569Z,2.93
2018-07-06T11:47:55.793Z,3.27
2018-07-06T11:50:28.654Z,2.87
2018-07-06T11:52:59.973Z,3.07
2018-07-06T11:55:32.551Z,3.20
2018-07-06T11:58:04.065Z,3.20
2018-07-06T12:00:35.018Z,3.17
2018-07-06T12:03:05.679Z,3.07
2018-07-06T12:05:36.325Z,3.03
2018-07-06T12:08:06.949Z,3.03
2018-07-06T12:10:37.893Z,2.83
2018-07-06T12:13:08.765Z,2.97
2018-07-06T12:15:39.560Z,3.57
2018-07-06T12:18:11.402Z,2.60
2018-07-06T12:20:41.986Z,2.47
2018-07-06T12:23:13.149Z,2.50
2018-07-06T12:25:44.067Z,3.33
2018-07-06T12:28:14.656Z,3.10
2018-07-06T12:30:45.862Z,3.20
2018-07-06T12:33:16.590Z,2.97
2018-07-06T12:35:47.404Z,3.07
2018-07-06T12:38:19.117Z,2.83
2018-07-06T12:40:50.398Z,3.23
2018-07-06T12:43:20.978Z,3.20
2018-07-06T12:45:51.602Z,3.30
2018-07-06T12:48:22.699Z,3.60
2018-07-06T12:50:53.929Z,3.43
2018-07-06T12:53:24.510Z,3.50
2018-07-06T12:55:55.326Z,2.93
2018-07-06T12:58:26.385Z,2.80
2018-07-06T13:00:57.367Z,2.63
2018-07-06T13:03:28.005Z,3.00
2018-07-06T13:05:58.678Z,3.00
2018-07-06T13:08:29.545Z,2.80
2018-07-06T13:11:00.334Z,2.97
2018-07-06T13:13:31.394Z,3.27
2018-07-06T13:16:02.141Z,3.10
2018-07-06T13:18:32.761Z,3.23
2018-07-06T13:21:03.795Z,3.17
2018-07-06T13:23:34.434Z,3.13
2018-07-06T13:26:05.362Z,2.97
2018-07-06T13:28:53.858Z,3.27
2018-07-06T13:31:24.582Z,2.90
2018-07-06T13:33:55.224Z,2.90
2018-07-06T13:36:26.102Z,3.27
2018-07-06T13:38:56.703Z,3.00
2018-07-06T13:41:27.446Z,3.20
2018-07-06T13:43:58.380Z,3.43
2018-07-06T13:46:29.527Z,3.40
2018-07-06T13:49:00.091Z,2.97
2018-07-06T13:51:31.034Z,3.27
2018-07-06T13:54:01.703Z,2.63
2018-07-06T13:56:32.777Z,2.70
2018-07-06T13:59:04.674Z,3.27
2018-07-06T14:01:36.018Z,3.33
2018-07-06T14:04:06.662Z,3.00
2018-07-06T14:06:41.390Z,3.17
2018-07-06T14:09:19.932Z,3.70
2018-07-06T14:11:50.674Z,3.23
2018-07-06T14:14:21.566Z,3.80
2018-07-06T14:16:52.926Z,3.13
2018-07-06T14:19:24.155Z,3.10
2018-07-06T14:21:55.485Z,3.20
2018-07-06T14:24:27.105Z,3.43
2018-07-06T14:26:57.882Z,2.80
2018-07-06T14:29:28.578Z,3.03
2018-07-06T14:32:02.188Z,3.23
2018-07-06T14:34:35.141Z,2.90
2018-07-06T14:37:06.207Z,2.87
2018-07-06T14:39:37.628Z,3.20
2018-07-06T14:42:08.639Z,2.90
2018-07-06T14:44:39.487Z,2.67
2018-07-06T14:47:10.885Z,2.50
2018-07-06T14:49:41.736Z,2.50
2018-07-06T14:52:12.544Z,2.90
2018-07-06T14:54:45.750Z,3.00
2018-07-06T14:57:17.800Z,3.10
2018-07-06T14:59:50.413Z,3.10
2018-07-06T15:02:23.476Z,2.67
2018-07-06T15:04:55.161Z,3.00
2018-07-06T15:07:26.450Z,3.00
2018-07-06T15:09:57.430Z,2.70
2018-07-06T15:12:28.462Z,2.60
2018-07-06T15:14:59.049Z,2.60
2018-07-06T15:17:30.288Z,2.93
2018-07-06T15:20:00.869Z,2.97
2018-07-06T15:22:33.482Z,3.00
2018-07-06T15:25:05.871Z,2.60
2018-07-06T15:27:36.669Z,3.10
2018-07-06T15:30:09.327Z,2.80
2018-07-06T15:32:47.665Z,3.33
2018-07-06T15:35:19.009Z,2.73
2018-07-06T15:37:51.043Z,3.10
2018-07-06T15:40:23.277Z,3.17
2018-07-06T15:42:55.125Z,2.90
2018-07-06T15:45:27.553Z,2.90
2018-07-06T15:48:00.236Z,3.00
2018-07-06T15:50:32.001Z,2.83
2018-07-06T15:53:03.037Z,3.50
2018-07-06T15:55:33.869Z,3.00
2018-07-06T15:58:04.466Z,3.03
2018-07-06T16:00:35.529Z,2.93
2018-07-06T16:03:06.277Z,3.23
2018-07-06T16:05:36.845Z,3.03
2018-07-06T16:08:07.903Z,2.77
2018-07-06T16:10:38.678Z,3.00
2018-07-06T16:13:10.192Z,2.60
2018-07-06T16:15:40.781Z,2.90
2018-07-06T16:18:11.558Z,2.93
2018-07-06T16:20:43.523Z,2.77
2018-07-06T16:23:15.582Z,3.13
2018-07-06T16:25:46.130Z,2.20
2018-07-06T16:28:17.310Z,2.60
2018-07-06T16:30:47.918Z,2.93
2018-07-06T16:33:18.981Z,3.10
2018-07-06T16:35:49.949Z,3.33
2018-07-06T16:38:22.105Z,2.90
2018-07-06T16:40:53.957Z,3.33
2018-07-06T16:43:31.472Z,3.30
2018-07-06T16:46:02.634Z,2.90
2018-07-06T16:48:33.486Z,2.80
2018-07-06T16:51:04.075Z,3.03
2018-07-06T16:53:35.646Z,3.00
2018-07-06T16:56:14.636Z,3.00
2018-07-06T16:58:47.844Z,2.73
2018-07-06T17:01:21.259Z,2.73
2018-07-06T17:03:52.974Z,3.23
2018-07-06T17:06:25.639Z,3.10
2018-07-06T17:08:58.045Z,2.80
2018-07-06T17:11:31.198Z,2.80
2018-07-06T17:14:22.092Z,2.60
2018-07-06T17:16:53.966Z,2.63
2018-07-06T17:19:26.105Z,3.00
2018-07-06T17:21:58.429Z,3.30
2018-07-06T17:24:30.498Z,2.67
2018-07-06T17:27:03.649Z,3.27
2018-07-06T17:29:35.040Z,3.07
2018-07-06T17:32:07.334Z,2.97
2018-07-06T17:34:42.834Z,3.23
2018-07-06T17:37:20.954Z,3.33
2018-07-06T17:39:54.316Z,3.00
2018-07-06T17:42:31.616Z,3.03
2018-07-06T17:45:06.702Z,3.10
2018-07-06T17:47:40.012Z,2.20
2018-07-06T17:50:13.171Z,3.47
2018-07-06T17:52:45.315Z,3.60
2018-07-06T17:55:16.671Z,3.07
2018-07-06T17:57:54.985Z,2.73
2018-07-06T18:00:27.664Z,3.20
2018-07-06T18:02:58.746Z,3.10
2018-07-06T18:05:34.606Z,3.50
2018-07-06T18:08:05.234Z,3.07
2018-07-06T18:10:37.147Z,3.03
2018-07-06T18:13:10.011Z,3.37
2018-07-06T18:15:41.754Z,3.00
2018-07-06T18:18:14.785Z,2.90
2018-07-06T18:20:45.680Z,4.07
2018-07-06T18:23:16.541Z,3.80
2018-07-06T18:25:47.575Z,3.43
2018-07-06T18:28:18.222Z,3.40
2018-07-06T18:30:56.137Z,3.00
2018-07-06T18:33:27.123Z,3.27
2018-07-06T18:36:00.400Z,2.80
2018-07-06T18:38:31.815Z,3.60
2018-07-06T18:41:03.295Z,3.73
2018-07-06T18:43:35.627Z,3.07
2018-07-06T18:46:06.319Z,3.40
2018-07-06T18:48:38.096Z,3.07
2018-07-06T18:51:09.054Z,3.10
2018-07-06T18:53:40.524Z,3.60
2018-07-06T18:56:13.743Z,2.90
2018-07-06T18:58:46.548Z,3.27
2018-07-06T19:01:17.904Z,3.43
2018-07-06T19:03:48.596Z,3.67
2018-07-06T19:06:19.713Z,3.20
2018-07-06T19:08:50.381Z,3.00
2018-07-06T19:11:21.483Z,2.83
2018-07-06T19:13:52.136Z,3.67
2018-07-06T19:16:23.950Z,3.50
2018-07-06T19:18:55.225Z,3.63
2018-07-06T19:21:26.943Z,3.37
2018-07-06T19:23:58.831Z,3.57
2018-07-06T19:26:30.378Z,2.73
2018-07-06T19:29:02.739Z,2.97
2018-07-06T19:31:33.930Z,3.97
2018-07-06T19:34:05.258Z,3.40
2018-07-06T19:36:38.124Z,3.67
2018-07-06T19:39:09.290Z,3.20
2018-07-06T19:41:40.215Z,3.63
2018-07-06T19:44:10.881Z,3.67
2018-07-06T19:46:46.270Z,3.47
2018-07-06T19:49:24.080Z,3.70
2018-07-06T19:51:56.523Z,3.70
2018-07-06T19:54:28.871Z,4.30
2018-07-06T19:56:59.746Z,3.43
2018-07-06T19:59:32.040Z,3.60
2018-07-06T20:02:03.909Z,3.60
2018-07-06T20:04:36.961Z,3.90
2018-07-06T20:07:08.462Z,3.57
2018-07-06T20:09:39.109Z,3.57
2018-07-06T20:12:10.203Z,3.23
2018-07-06T20:14:40.900Z,3.23
2018-07-06T20:17:11.953Z,3.00
2018-07-06T20:19:42.574Z,3.10
2018-07-06T20:22:13.637Z,4.20
2018-07-06T20:24:44.513Z,3.20
2018-07-06T20:27:15.533Z,3.80
2018-07-06T20:29:46.652Z,3.63
2018-07-06T20:32:17.270Z,3.47
2018-07-06T20:34:47.894Z,3.77
2018-07-06T20:37:19.142Z,3.60
2018-07-06T20:39:49.887Z,3.70
2018-07-06T20:42:20.924Z,3.80
2018-07-06T20:44:52.198Z,3.80
2018-07-06T20:47:23.469Z,3.73
2018-07-06T20:49:54.623Z,3.43
2018-07-06T20:52:25.589Z,3.90
2018-07-06T20:54:55.642Z,3.30
2018-07-06T20:57:26.254Z,3.60
2018-07-06T20:59:57.263Z,3.23
2018-07-06T21:02:28.149Z,3.77
2018-07-06T21:04:58.770Z,4.10
2018-07-06T21:07:29.942Z,4.20
2018-07-06T21:10:00.528Z,3.57
2018-07-06T21:12:31.542Z,3.50
2018-07-06T21:15:02.439Z,4.27
2018-07-06T21:17:33.508Z,4.43
2018-07-06T21:20:04.265Z,4.27
2018-07-06T21:22:35.350Z,3.97
2018-07-06T21:25:06.486Z,4.33
2018-07-06T21:27:37.049Z,4.10
2018-07-06T21:30:08.110Z,3.73
2018-07-06T21:32:38.913Z,3.80
2018-07-06T21:35:09.873Z,3.73
2018-07-06T21:37:41.806Z,3.40
2018-07-06T21:40:12.673Z,4.03
2018-07-06T21:42:43.594Z,4.00
2018-07-06T21:45:14.768Z,3.47
2018-07-06T21:47:45.769Z,3.37
2018-07-06T21:50:16.974Z,4.03
2018-07-06T21:52:48.062Z,3.70
2018-07-06T21:55:18.775Z,3.77
2018-07-06T21:57:49.386Z,3.83
2018-07-06T22:00:29.629Z,3.40
2018-07-06T22:03:00.914Z,4.00
2018-07-06T22:05:32.422Z,3.37
2018-07-06T22:08:04.925Z,3.60
2018-07-06T22:10:36.682Z,4.00
2018-07-06T22:13:08.369Z,3.60
2018-07-06T22:15:47.065Z,4.63
2018-07-06T22:18:19.089Z,3.90
2018-07-06T22:20:50.182Z,4.33
2018-07-06T22:23:20.929Z,3.93
2018-07-06T22:25:51.666Z,4.40
2018-07-06T22:28:22.486Z,3.80
2018-07-06T22:30:53.621Z,4.13
2018-07-06T22:33:24.339Z,4.77
2018-07-06T22:35:55.483Z,4.07
2018-07-06T22:38:26.077Z,4.63
2018-07-06T22:40:56.577Z,3.70
2018-07-06T22:43:27.574Z,4.50
2018-07-06T22:45:58.239Z,3.73
2018-07-06T22:48:29.194Z,4.00
2018-07-06T22:51:00.113Z,4.07
2018-07-06T22:53:30.714Z,4.00
2018-07-06T22:56:02.176Z,4.33
2018-07-06T22:58:33.644Z,4.23
2018-07-06T23:01:04.303Z,4.33
2018-07-06T23:03:35.078Z,4.53
2018-07-06T23:06:05.597Z,4.77
2018-07-06T23:08:36.690Z,4.47
2018-07-06T23:11:07.277Z,4.13
2018-07-06T23:13:38.592Z,4.57
2018-07-06T23:16:09.426Z,4.17
2018-07-06T23:18:40.013Z,4.37
2018-07-06T23:21:11.189Z,3.80
2018-07-06T23:23:41.722Z,4.60
2018-07-06T23:26:13.177Z,4.27
2018-07-06T23:28:44.091Z,4.70
2018-07-06T23:31:14.641Z,4.53
2018-07-06T23:33:45.409Z,3.93
2018-07-06T23:36:16.278Z,4.30
2018-07-06T23:38:47.417Z,4.50
2018-07-06T23:41:17.977Z,4.30
2018-07-06T23:43:49.345Z,4.30
2018-07-06T23:46:19.910Z,4.57
2018-07-06T23:48:51.169Z,3.90
2018-07-06T23:51:22.701Z,4.10
2018-07-06T23:53:53.765Z,4.60
2018-07-06T23:56:24.357Z,4.63
2018-07-06T23:58:55.564Z,4.53
